Latest Weather Observations for Hunters Hill

IDV60801

Issued at 9:32 pm EST Wednesday 27 July 2016 (issued every 30 minutes, with the page automatically refreshed every 10 minutes)

About weather observations | Map of weather stations | Latest weather observations for VIC | Other Formats
Station Details ID: 082139 Name: HUNTERS HILL Lat: -36.21 Lon: 147.54 Height: 981.0 m
Data from the previous 72 hours. | See also: Recent months at Hunters Hill
Date/Time
EST
Temp
°C
App
Temp
°C
Dew
Point
°C
Rel
Hum
%
Delta-T
°C
Wind Press
QNH
hPa
Press
MSL
hPa
Rain since
9am
mm
Dir  Spd
km/h
Gust
km/h
Spd
kts
Gust
kts
27/09:30pm 2.0 -3.3 1.9 99 0.0 WSW 19 37 10 20 - - 1.8
27/09:00pm 2.2 -4.0 2.2 100 0.0 WSW 24 44 13 24 - - 1.8
27/08:30pm 2.3 -1.0 2.3 100 0.0 W 9 30 5 16 - - 1.8
27/08:00pm 2.9 -1.5 2.9 100 0.0 WSW 15 32 8 17 - - 1.8
27/07:30pm 3.2 -0.7 3.2 100 0.0 WSW 13 30 7 16 - - 1.6
27/07:00pm 3.6 -0.6 3.6 100 0.0 SW 15 30 8 16 - - 1.6
27/06:30pm 4.0 1.0 4.0 100 0.0 W 9 24 5 13 - - 1.2
27/06:00pm 3.9 -0.7 3.9 100 0.0 WSW 17 39 9 21 - - 1.2
27/05:30pm 4.0 -0.2 4.0 100 0.0 WSW 15 28 8 15 - - 1.2
27/05:00pm 4.2 1.6 4.2 100 0.0 W 7 22 4 12 - - 0.8
27/04:30pm 4.2 1.2 4.2 100 0.0 WSW 9 19 5 10 - - 0.6
27/04:00pm 4.2 0.8 4.2 100 0.0 W 11 20 6 11 - - 0.6
27/03:30pm 4.2 0.8 4.2 100 0.0 WSW 11 24 6 13 - - 0.4
27/03:00pm 4.1 1.1 4.1 100 0.0 W 9 17 5 9 - - 0.4
27/02:30pm 3.9 0.5 3.9 100 0.0 W 11 22 6 12 - - 0.2
27/02:00pm 3.9 0.9 3.9 100 0.0 W 9 19 5 10 - - 0.2
27/01:30pm 4.0 1.4 4.0 100 0.0 W 7 20 4 11 - - 0.0
27/01:00pm 4.0 1.0 4.0 100 0.0 W 9 22 5 12 - - 0.0
27/12:30pm 4.5 1.6 4.5 100 0.0 W 9 17 5 9 - - 0.0
27/12:00pm 3.9 1.2 3.9 100 0.0 WSW 7 13 4 7 - - 0.0
27/11:30am 4.0 1.5 4.0 100 0.0 W 6 13 3 7 - - 0.0
27/11:00am 3.2 0.4 3.2 100 0.0 WSW 7 13 4 7 - - 0.0
27/10:30am 3.5 0.8 3.5 100 0.0 WNW 7 17 4 9 - - 0.0
27/10:00am 3.4 0.3 3.4 100 0.0 W 9 22 5 12 - - 0.0
27/09:30am 2.9 -0.7 2.9 100 0.0 W 11 22 6 12 - - 0.0
27/09:00am 2.6 -1.8 2.6 100 0.0 W 15 28 8 15 - - 16.6
27/08:30am 2.6 -1.8 2.6 100 0.0 WSW 15 26 8 14 - - 16.6
27/08:00am 2.5 -1.9 2.5 100 0.0 W 15 30 8 16 - - 16.6
27/07:30am 2.5 -1.6 2.5 100 0.0 WSW 13 30 7 16 - - 16.6
27/07:00am 2.6 -1.8 2.6 100 0.0 W 15 32 8 17 - - 16.4
27/06:30am 3.0 -0.6 3.0 100 0.0 W 11 20 6 11 - - 15.8
27/06:00am 2.9 -1.1 2.9 100 0.0 WNW 13 22 7 12 - - 14.2
27/05:30am 2.6 -0.7 2.6 100 0.0 WNW 9 20 5 11 - - 13.6
27/05:00am 2.3 -2.2 2.3 100 0.0 WNW 15 32 8 17 - - 12.8
27/04:30am 2.4 -1.3 2.4 100 0.0 NW 11 22 6 12 - - 12.4
27/04:00am 2.2 -1.5 2.2 100 0.0 NNW 11 24 6 13 - - 11.6
27/03:30am 2.0 -1.4 2.0 100 0.0 N 9 17 5 9 - - 9.8
27/03:00am 1.6 -2.2 1.6 100 0.0 NNW 11 22 6 12 - - 8.4
27/02:30am 1.5 -2.3 1.5 100 0.0 N 11 24 6 13 - - 7.0
27/02:00am 1.7 -2.5 1.7 100 0.0 N 13 24 7 13 - - 5.4
27/01:30am 1.4 -1.5 1.4 100 0.0 N 6 20 3 11 - - 4.8
27/01:00am 1.1 -2.8 1.1 100 0.0 N 11 26 6 14 - - 4.2
27/12:30am 1.6 -1.8 1.6 100 0.0 N 9 19 5 10 - - 3.4
27/12:00am 1.6 -1.8 1.6 100 0.0 N 9 20 5 11 - - 3.4
 
Date/Time
EST
Temp
°C
App
Temp
°C
Dew
Point
°C
Rel
Hum
%
Delta-T
°C
Wind Press
QNH
hPa
Press
MSL
hPa
Rain since
9am
mm
Dir  Spd
km/h
Gust
km/h
Spd
kts
Gust
kts
26/11:30pm 1.6 -1.5 1.6 100 0.0 N 7 20 4 11 - - 3.4
26/11:00pm 1.3 -1.6 1.3 100 0.0 N 6 11 3 6 - - 3.4
26/10:30pm 1.6 -1.5 1.6 100 0.0 NNW 7 20 4 11 - - 3.4
26/10:00pm 1.5 -2.0 1.5 100 0.0 NNW 9 20 5 11 - - 3.4
26/09:30pm 1.6 -2.2 1.6 100 0.0 NNW 11 22 6 12 - - 3.2
26/09:00pm 1.3 -2.2 1.3 100 0.0 WNW 9 17 5 9 - - 3.2
26/08:30pm 1.5 -1.6 1.5 100 0.0 NW 7 17 4 9 - - 3.0
26/08:00pm 1.3 -2.6 1.3 100 0.0 WNW 11 24 6 13 - - 2.6
26/07:30pm 1.8 -2.0 1.8 100 0.0 NNW 11 22 6 12 - - 2.4
26/07:00pm 1.6 -1.5 1.6 100 0.0 NNW 7 17 4 9 - - 2.4
26/06:30pm 1.5 -2.3 1.5 100 0.0 NW 11 28 6 15 - - 2.4
26/06:00pm 1.4 -1.5 1.4 100 0.0 WNW 6 11 3 6 - - 2.4
26/05:30pm 1.1 -3.2 1.1 100 0.0 WNW 13 26 7 14 - - 2.0
26/05:00pm 1.8 -2.4 1.8 100 0.0 NW 13 24 7 13 - - 1.2
26/04:30pm 1.8 -2.0 1.8 100 0.0 NW 11 20 6 11 - - 1.2
26/04:00pm 2.0 -1.8 2.0 100 0.0 NNW 11 26 6 14 - - 1.2
26/03:30pm 2.3 -1.0 2.3 100 0.0 NW 9 22 5 12 - - 1.2
26/03:00pm 2.3 -1.0 2.3 100 0.0 NW 9 19 5 10 - - 1.2
26/02:30pm 1.4 -2.5 1.4 100 0.0 WNW 11 26 6 14 - - 1.2
26/02:00pm 2.1 -2.0 2.1 100 0.0 WNW 13 22 7 12 - - 0.6
26/01:30pm 2.3 -1.4 2.3 100 0.0 NW 11 20 6 11 - - 0.4
26/01:00pm 1.4 -2.5 1.4 100 0.0 NW 11 30 6 16 - - 0.4
26/12:30pm 2.3 -2.6 2.2 99 0.0 NW 17 30 9 16 - - 0.2
26/12:00pm 2.3 -2.6 2.3 100 0.0 NW 17 35 9 19 - - 0.2
26/11:30am 1.7 -2.1 1.7 100 0.0 WNW 11 24 6 13 - - 0.2
26/11:00am 1.1 -3.6 1.1 100 0.0 WNW 15 26 8 14 - - 0.2
26/10:30am 1.0 -3.3 1.0 100 0.0 WNW 13 26 7 14 - - 0.0
26/10:00am 1.0 -3.7 1.0 100 0.0 WNW 15 24 8 13 - - 0.0
26/09:30am 0.6 -3.8 0.6 100 0.0 NW 13 28 7 15 - - 0.0
26/09:00am 0.4 -3.2 0.4 100 0.0 WNW 9 20 5 11 - - 21.2
26/08:30am 0.3 -3.3 0.3 100 0.0 WNW 9 20 5 11 - - 21.2
26/08:00am 0.2 -3.8 0.2 100 0.0 WNW 11 26 6 14 - - 21.2
26/07:30am 0.3 -4.5 0.3 100 0.0 W 15 32 8 17 - - 21.2
26/07:00am 0.4 -5.1 0.4 100 0.0 W 19 32 10 17 - - 21.2
26/06:30am 0.5 -5.0 0.5 100 0.0 W 19 35 10 19 - - 21.2
26/06:00am 0.5 -4.6 0.5 100 0.0 W 17 28 9 15 - - 21.2
26/05:30am 0.6 -4.1 0.6 100 0.0 W 15 35 8 19 - - 21.2
26/05:00am 0.8 -4.9 0.8 100 0.0 W 20 43 11 23 - - 21.2
26/04:30am 0.8 -4.9 0.8 100 0.0 W 20 37 11 20 - - 21.2
26/04:00am 0.9 -5.1 0.9 100 0.0 W 22 43 12 23 - - 21.2
26/03:30am 1.1 -4.5 1.1 100 0.0 W 20 33 11 18 - - 21.2
26/03:00am 1.3 -4.1 1.3 100 0.0 W 19 41 10 22 - - 21.2
26/02:30am 1.5 -3.9 1.5 100 0.0 W 19 35 10 19 - - 21.2
26/02:00am 1.3 -3.7 1.3 100 0.0 W 17 30 9 16 - - 21.0
26/01:30am 1.5 -4.1 1.5 100 0.0 W 20 48 11 26 - - 21.0
26/01:10am 1.8 -5.2 1.8 100 0.0 W 28 61 15 33 - - 20.6
26/01:00am 2.4 -2.4 2.4 100 0.0 W 17 37 9 20 - - 19.8
26/12:30am 2.9 -3.2 2.9 100 0.0 WNW 24 43 13 23 - - 17.4
26/12:00am 3.0 -2.7 3.0 100 0.0 WNW 22 43 12 23 - - 16.8
 
Date/Time
EST
Temp
°C
App
Temp
°C
Dew
Point
°C
Rel
Hum
%
Delta-T
°C
Wind Press
QNH
hPa
Press
MSL
hPa
Rain since
9am
mm
Dir  Spd
km/h
Gust
km/h
Spd
kts
Gust
kts
25/11:30pm 2.9 -2.8 2.9 100 0.0 NW 22 46 12 25 - - 15.4
25/11:00pm 3.0 -2.7 3.0 100 0.0 NW 22 46 12 25 - - 14.2
25/10:30pm 3.0 -3.1 3.0 100 0.0 NW 24 46 13 25 - - 13.6
25/10:00pm 3.1 -2.6 3.1 100 0.0 NW 22 46 12 25 - - 12.6
25/09:30pm 3.2 -2.1 3.2 100 0.0 NW 20 41 11 22 - - 11.4
25/09:00pm 3.1 -2.2 3.1 100 0.0 NNW 20 43 11 23 - - 10.4
25/08:30pm 3.0 -2.3 3.0 100 0.0 NW 20 43 11 23 - - 10.0
25/08:00pm 3.0 -1.7 3.0 100 0.0 NW 17 39 9 21 - - 9.8
25/07:30pm 2.8 -1.6 2.8 100 0.0 NW 15 33 8 18 - - 9.4
25/07:00pm 2.7 -2.1 2.7 100 0.0 NW 17 37 9 20 - - 8.8
25/06:30pm 2.8 -1.6 2.8 100 0.0 WNW 15 35 8 19 - - 8.4
25/06:00pm 2.8 -2.3 2.8 100 0.0 WNW 19 33 10 18 - - 8.0
25/05:30pm 3.2 -1.5 3.2 100 0.0 NW 17 39 9 21 - - 8.0
25/05:00pm 3.3 -2.3 3.3 100 0.0 WNW 22 43 12 23 - - 7.8
25/04:30pm 3.3 -1.4 3.3 100 0.0 WNW 17 39 9 21 - - 7.4
25/04:00pm 3.9 -0.7 3.9 100 0.0 NW 17 32 9 17 - - 7.0
25/03:30pm 3.8 0.0 3.8 100 0.0 NW 13 24 7 13 - - 6.4
25/03:00pm 3.6 -0.3 3.6 100 0.0 NW 13 28 7 15 - - 5.8
25/02:30pm 3.6 -0.3 3.6 100 0.0 NW 13 28 7 15 - - 5.6
25/02:00pm 3.8 0.7 3.8 100 0.0 NW 9 22 5 12 - - 5.6
25/01:30pm 3.4 -0.1 3.4 100 0.0 NW 11 22 6 12 - - 5.6
25/01:00pm 3.3 0.5 3.3 100 0.0 NW 7 20 4 11 - - 5.2
25/12:30pm 2.6 -1.1 2.6 100 0.0 NNW 11 19 6 10 - - 4.2
25/12:00pm 2.3 -1.0 2.3 100 0.0 NW 9 17 5 9 - - 4.0
25/11:30am 2.1 -1.6 2.1 100 0.0 NW 11 19 6 10 - - 3.8
25/11:00am 2.0 -1.4 2.0 100 0.0 WNW 9 17 5 9 - - 3.8
25/10:30am 1.9 -1.9 1.9 100 0.0 WNW 11 24 6 13 - - 3.6
25/10:00am 1.8 -2.0 1.8 100 0.0 WNW 11 28 6 15 - - 2.2
25/09:30am 1.8 -1.2 1.8 100 0.0 WNW 7 17 4 9 - - 1.2
25/09:00am 1.5 -2.3 1.5 100 0.0 W 11 20 6 11 - - 23.4
25/08:30am 1.7 -1.7 1.7 100 0.0 WNW 9 20 5 11 - - 22.2
25/08:00am 1.6 -2.2 1.6 100 0.0 W 11 19 6 10 - - 20.6
25/07:30am 1.5 -2.0 1.5 100 0.0 W 9 17 5 9 - - 19.4
25/07:00am 1.3 -2.2 1.3 100 0.0 W 9 20 5 11 - - 18.4
25/06:30am 1.4 -2.5 1.4 100 0.0 WNW 11 26 6 14 - - 17.8
25/06:00am 1.3 -2.6 1.3 100 0.0 WNW 11 24 6 13 - - 17.0
25/05:30am 1.1 -1.9 1.1 100 0.0 WNW 6 9 3 5 - - 15.8
25/05:00am 0.9 -2.3 0.9 100 0.0 WNW 7 13 4 7 - - 14.8
25/04:30am 0.7 -2.9 0.7 100 0.0 WNW 9 20 5 11 - - 14.0
25/04:00am 0.6 -3.0 0.6 100 0.0 WNW 9 24 5 13 - - 13.4
25/03:30am 0.7 -2.9 0.7 100 0.0 WNW 9 19 5 10 - - 12.6
25/03:00am 0.2 -3.5 0.2 100 0.0 WNW 9 19 5 10 - - 12.0
25/02:30am 0.5 -3.5 0.5 100 0.0 WNW 11 22 6 12 - - 11.8
25/02:00am 0.8 -3.2 0.8 100 0.0 W 11 22 6 12 - - 11.0
25/01:30am 0.4 -4.0 0.4 100 0.0 W 13 22 7 12 - - 10.6
25/01:00am 0.9 -3.8 0.9 100 0.0 W 15 28 8 15 - - 9.8
25/12:30am 0.8 -3.9 0.8 100 0.0 W 15 32 8 17 - - 8.8
25/12:00am 0.9 -5.1 0.9 100 0.0 W 22 39 12 21 - - 8.2
 
Date/Time
EST
Temp
°C
App
Temp
°C
Dew
Point
°C
Rel
Hum
%
Delta-T
°C
Wind Press
QNH
hPa
Press
MSL
hPa
Rain since
9am
mm
Dir  Spd
km/h
Gust
km/h
Spd
kts
Gust
kts
24/11:30pm 0.2 -4.2 0.2 100 0.0 WNW 13 24 7 13 - - 8.0
24/11:00pm 0.1 -4.3 0.1 100 0.0 NW 13 26 7 14 - - 7.8
24/10:30pm 1.3 -2.2 1.3 100 0.0 N 9 19 5 10 - - 7.0
24/10:00pm 1.3 -1.2 1.3 100 0.0 N 4 9 2 5 - - 5.2

Other Formats:

Comma delimited format used in spreadsheet applications
http://www.bom.gov.au/fwo/IDV60801/IDV60801.94878.axf

JavaScript Object Notation format (JSON) in row-major order
http://www.bom.gov.au/fwo/IDV60801/IDV60801.94878.json